sensor_id;sensor_type;location;lat;lon;timestamp;pressure;altitude;pressure_sealevel;temperature;humidity
58739;BME280;44512;53.046;18.604;2023-01-31T00:04:15;100453.30;;;4.31;70.00
58739;BME280;44512;53.046;18.604;2023-01-31T00:14:43;100470.88;;;4.34;69.92
58739;BME280;44512;53.046;18.604;2023-01-31T00:25:11;100484.13;;;4.35;69.60
58739;BME280;44512;53.046;18.604;2023-01-31T00:35:39;100493.18;;;4.34;69.21
58739;BME280;44512;53.046;18.604;2023-01-31T00:46:08;100510.92;;;4.35;68.98
58739;BME280;44512;53.046;18.604;2023-01-31T00:56:37;100528.68;;;4.36;68.46
58739;BME280;44512;53.046;18.604;2023-01-31T01:07:05;100532.85;;;4.39;67.93
58739;BME280;44512;53.046;18.604;2023-01-31T01:17:33;100556.83;;;4.40;67.20
58739;BME280;44512;53.046;18.604;2023-01-31T01:28:01;100580.45;;;4.45;66.98
58739;BME280;44512;53.046;18.604;2023-01-31T01:38:30;100597.87;;;4.49;66.63
58739;BME280;44512;53.046;18.604;2023-01-31T01:59:34;100620.14;;;4.50;66.05
58739;BME280;44512;53.046;18.604;2023-01-31T02:10:04;100625.85;;;4.47;65.80
58739;BME280;44512;53.046;18.604;2023-01-31T02:51:50;100680.77;;;4.34;65.37
58739;BME280;44512;53.046;18.604;2023-01-31T03:02:17;100696.84;;;4.34;65.66
58739;BME280;44512;53.046;18.604;2023-01-31T03:12:56;100721.78;;;4.35;65.62
58739;BME280;44512;53.046;18.604;2023-01-31T03:23:17;100739.38;;;4.37;65.49
58739;BME280;44512;53.046;18.604;2023-01-31T03:33:45;100738.54;;;4.37;65.25
58739;BME280;44512;53.046;18.604;2023-01-31T03:44:23;100770.69;;;4.37;65.08
58739;BME280;44512;53.046;18.604;2023-01-31T03:54:46;100790.83;;;4.41;64.75
58739;BME280;44512;53.046;18.604;2023-01-31T04:05:11;100799.53;;;4.43;64.43
58739;BME280;44512;53.046;18.604;2023-01-31T04:15:35;100805.90;;;4.42;63.90
58739;BME280;44512;53.046;18.604;2023-01-31T04:26:03;100818.29;;;4.43;63.57
58739;BME280;44512;53.046;18.604;2023-01-31T04:36:32;100838.06;;;4.42;63.25
58739;BME280;44512;53.046;18.604;2023-01-31T04:47:00;100873.58;;;4.44;63.18
58739;BME280;44512;53.046;18.604;2023-01-31T04:57:29;100866.87;;;4.40;63.00
58739;BME280;44512;53.046;18.604;2023-01-31T05:07:58;100875.38;;;4.35;62.90
58739;BME280;44512;53.046;18.604;2023-01-31T05:18:25;100900.64;;;4.33;62.73
58739;BME280;44512;53.046;18.604;2023-01-31T05:28:54;100907.63;;;4.26;62.68
58739;BME280;44512;53.046;18.604;2023-01-31T05:39:23;100936.17;;;4.17;62.46
58739;BME280;44512;53.046;18.604;2023-01-31T05:49:51;100947.67;;;4.09;62.55
58739;BME280;44512;53.046;18.604;2023-01-31T06:00:20;100939.09;;;4.06;62.65
58739;BME280;44512;53.046;18.604;2023-01-31T06:10:47;100951.94;;;4.02;62.43
58739;BME280;44512;53.046;18.604;2023-01-31T06:21:16;100948.19;;;3.95;62.40
58739;BME280;44512;53.046;18.604;2023-01-31T06:31:45;100976.10;;;3.92;62.15
58739;BME280;44512;53.046;18.604;2023-01-31T06:42:13;101000.52;;;3.89;61.90
58739;BME280;44512;53.046;18.604;2023-01-31T06:52:42;101032.83;;;3.88;61.99
58739;BME280;44512;53.046;18.604;2023-01-31T07:03:10;101054.53;;;3.85;62.12
58739;BME280;44512;53.046;18.604;2023-01-31T07:13:38;101082.30;;;3.84;62.02
58739;BME280;44512;53.046;18.604;2023-01-31T07:24:07;101079.63;;;3.84;61.98
58739;BME280;44512;53.046;18.604;2023-01-31T07:34:35;101092.70;;;3.87;62.09
58739;BME280;44512;53.046;18.604;2023-01-31T07:45:04;101103.93;;;4.00;61.88
58739;BME280;44512;53.046;18.604;2023-01-31T07:55:31;101102.94;;;4.01;61.42
58739;BME280;44512;53.046;18.604;2023-01-31T08:06:08;101120.95;;;4.09;61.31
58739;BME280;44512;53.046;18.604;2023-01-31T08:16:29;101151.27;;;4.09;61.38
58739;BME280;44512;53.046;18.604;2023-01-31T08:26:57;101146.59;;;4.11;61.39
58739;BME280;44512;53.046;18.604;2023-01-31T08:37:25;101150.27;;;4.10;60.93
58739;BME280;44512;53.046;18.604;2023-01-31T08:47:58;101165.19;;;4.13;60.83
58739;BME280;44512;53.046;18.604;2023-01-31T08:58:22;101170.10;;;4.17;60.59
58739;BME280;44512;53.046;18.604;2023-01-31T09:08:51;101181.23;;;4.23;60.10
58739;BME280;44512;53.046;18.604;2023-01-31T09:19:19;101187.70;;;4.30;59.43
58739;BME280;44512;53.046;18.604;2023-01-31T09:34:51;101220.35;;;4.43;59.05
58739;BME280;44512;53.046;18.604;2023-01-31T09:45:31;101208.05;;;4.50;58.05
58739;BME280;44512;53.046;18.604;2023-01-31T09:55:56;101207.73;;;4.53;57.51
58739;BME280;44512;53.046;18.604;2023-01-31T10:16:54;101210.65;;;4.60;56.73
58739;BME280;44512;53.046;18.604;2023-01-31T10:37:49;101220.85;;;4.56;56.24
58739;BME280;44512;53.046;18.604;2023-01-31T10:48:16;101226.22;;;4.56;56.12
58739;BME280;44512;53.046;18.604;2023-01-31T10:58:38;101185.69;;;4.59;56.02
58739;BME280;44512;53.046;18.604;2023-01-31T11:09:08;101198.12;;;4.60;55.38
58739;BME280;44512;53.046;18.604;2023-01-31T11:19:37;101193.43;;;4.62;55.00
58739;BME280;44512;53.046;18.604;2023-01-31T11:30:05;101182.43;;;4.65;54.61
58739;BME280;44512;53.046;18.604;2023-01-31T11:40:34;101166.34;;;4.65;54.58
58739;BME280;44512;53.046;18.604;2023-01-31T11:51:01;101162.66;;;4.66;54.39
58739;BME280;44512;53.046;18.604;2023-01-31T12:01:29;101160.81;;;4.67;54.39
58739;BME280;44512;53.046;18.604;2023-01-31T12:11:59;101152.45;;;4.70;54.17
58739;BME280;44512;53.046;18.604;2023-01-31T12:33:03;101091.64;;;4.70;54.10
58739;BME280;44512;53.046;18.604;2023-01-31T13:04:29;101061.73;;;4.83;54.51
58739;BME280;44512;53.046;18.604;2023-01-31T13:35:47;101036.30;;;4.87;55.58
58739;BME280;44512;53.046;18.604;2023-01-31T13:46:15;101020.04;;;4.89;56.26
58739;BME280;44512;53.046;18.604;2023-01-31T13:56:41;101020.72;;;4.91;56.80
58739;BME280;44512;53.046;18.604;2023-01-31T14:07:16;101012.66;;;4.91;57.35
58739;BME280;44512;53.046;18.604;2023-01-31T14:28:10;101001.26;;;4.89;57.79
58739;BME280;44512;53.046;18.604;2023-01-31T14:38:47;100984.34;;;4.88;58.00
58739;BME280;44512;53.046;18.604;2023-01-31T14:59:39;100969.71;;;4.83;59.13
58739;BME280;44512;53.046;18.604;2023-01-31T15:10:00;100967.66;;;4.77;59.85
58739;BME280;44512;53.046;18.604;2023-01-31T15:20:35;100942.45;;;4.69;60.32
58739;BME280;44512;53.046;18.604;2023-01-31T15:31:01;100936.42;;;4.67;60.63
58739;BME280;44512;53.046;18.604;2023-01-31T16:02:29;100912.09;;;4.61;62.87
58739;BME280;44512;53.046;18.604;2023-01-31T16:12:52;100894.46;;;4.58;64.06
58739;BME280;44512;53.046;18.604;2023-01-31T16:33:50;100863.08;;;4.51;66.43
58739;BME280;44512;53.046;18.604;2023-01-31T16:44:21;100833.24;;;4.46;67.19
58739;BME280;44512;53.046;18.604;2023-01-31T16:54:49;100826.51;;;4.41;67.89
58739;BME280;44512;53.046;18.604;2023-01-31T17:05:19;100800.18;;;4.37;68.53
58739;BME280;44512;53.046;18.604;2023-01-31T17:15:40;100786.58;;;4.30;69.09
58739;BME280;44512;53.046;18.604;2023-01-31T17:26:15;100766.92;;;4.22;69.60
58739;BME280;44512;53.046;18.604;2023-01-31T17:36:37;100741.44;;;4.17;69.95
58739;BME280;44512;53.046;18.604;2023-01-31T17:47:05;100723.32;;;4.11;70.45
58739;BME280;44512;53.046;18.604;2023-01-31T17:57:34;100693.20;;;4.09;70.86
58739;BME280;44512;53.046;18.604;2023-01-31T18:08:03;100665.05;;;4.05;71.28
58739;BME280;44512;53.046;18.604;2023-01-31T18:18:31;100633.91;;;4.04;71.65
58739;BME280;44512;53.046;18.604;2023-01-31T18:28:59;100590.88;;;4.06;71.92
58739;BME280;44512;53.046;18.604;2023-01-31T18:39:32;100581.18;;;4.13;71.97
58739;BME280;44512;53.046;18.604;2023-01-31T18:49:56;100570.47;;;4.13;72.31
58739;BME280;44512;53.046;18.604;2023-01-31T19:00:24;100536.65;;;4.12;72.71
58739;BME280;44512;53.046;18.604;2023-01-31T19:10:53;100510.70;;;4.12;73.10
58739;BME280;44512;53.046;18.604;2023-01-31T19:21:28;100507.54;;;4.17;73.38
58739;BME280;44512;53.046;18.604;2023-01-31T19:31:52;100465.20;;;4.21;73.79
58739;BME280;44512;53.046;18.604;2023-01-31T19:42:18;100471.91;;;4.25;74.15
58739;BME280;44512;53.046;18.604;2023-01-31T19:52:46;100437.73;;;4.27;74.65
58739;BME280;44512;53.046;18.604;2023-01-31T20:03:15;100418.48;;;4.31;75.00
58739;BME280;44512;53.046;18.604;2023-01-31T20:13:43;100409.95;;;4.36;75.40
58739;BME280;44512;53.046;18.604;2023-01-31T20:24:12;100380.79;;;4.41;75.60
58739;BME280;44512;53.046;18.604;2023-01-31T20:34:40;100380.95;;;4.48;75.75
58739;BME280;44512;53.046;18.604;2023-01-31T20:45:09;100364.36;;;4.52;75.98
58739;BME280;44512;53.046;18.604;2023-01-31T20:55:37;100334.19;;;4.58;76.08
58739;BME280;44512;53.046;18.604;2023-01-31T21:06:06;100322.77;;;4.64;76.13
58739;BME280;44512;53.046;18.604;2023-01-31T21:16:34;100330.15;;;4.70;76.10
58739;BME280;44512;53.046;18.604;2023-01-31T21:27:02;100312.36;;;4.78;76.09
58739;BME280;44512;53.046;18.604;2023-01-31T21:37:30;100312.49;;;4.84;76.01
58739;BME280;44512;53.046;18.604;2023-01-31T21:47:59;100356.41;;;4.91;76.11
58739;BME280;44512;53.046;18.604;2023-01-31T21:58:27;100360.95;;;4.83;75.57
58739;BME280;44512;53.046;18.604;2023-01-31T22:08:57;100352.27;;;4.64;73.33
58739;BME280;44512;53.046;18.604;2023-01-31T22:19:24;100333.21;;;4.51;72.84
58739;BME280;44512;53.046;18.604;2023-01-31T22:29:52;100368.41;;;4.40;72.49
58739;BME280;44512;53.046;18.604;2023-01-31T22:40:21;100362.38;;;4.30;72.51
58739;BME280;44512;53.046;18.604;2023-01-31T22:50:56;100359.37;;;4.25;72.44
58739;BME280;44512;53.046;18.604;2023-01-31T23:01:22;100348.98;;;4.22;72.44
58739;BME280;44512;53.046;18.604;2023-01-31T23:11:46;100352.67;;;4.21;72.43
58739;BME280;44512;53.046;18.604;2023-01-31T23:22:14;100363.38;;;4.21;72.40
58739;BME280;44512;53.046;18.604;2023-01-31T23:32:43;100363.38;;;4.21;72.51
58739;BME280;44512;53.046;18.604;2023-01-31T23:43:11;100353.00;;;4.17;72.73
58739;BME280;44512;53.046;18.604;2023-01-31T23:53:40;100373.77;;;4.15;72.90
